Hamnavoe — VSTY7 — position and weather

sailwx.info

Track history (hours):
 
Tides and Currents Weather Stations Pressure Air Temp Water Temp Dewpoint Dewpoint Depression Visibility Wind Speed Wind Dir Waves Ship Positions

Hamnavoe

Operator: NorthLink Orkey & Shetland Ferries Ltd

Last reported at 2016-Apr-29 01:32 UTC. Time now 2016-Apr-29 01:56 UTC.
Position N 58°58' W 003°18'.

Length 112 m; draft 4.2 m.

Type: Ship. MMSI: 235449000.

Date/timePositionNaut miles runAvg speedWind from/ knotsBaromVisibWave heightAir tempDewpointWater temp
2016-Apr-29 01:32N 58°58' W 003°18'0 0.0
2016-Apr-29 00:32N 58°58' W 003°18'0 0.0
2016-Apr-28 23:32N 58°58' W 003°18'0 0.0
2016-Apr-28 22:32N 58°58' W 003°18'0 0.0
2016-Apr-28 21:32N 58°58' W 003°18'0 0.0
2016-Apr-28 20:32N 58°58' W 003°18'0 0.0
2016-Apr-28 19:32N 58°58' W 003°18'1212.4
2016-Apr-28 18:33N 58°48' W 003°30'1110.9
2016-Apr-28 17:33N 58°37' W 003°32'9 9.4
2016-Apr-28 16:33N 58°46' W 003°30'1313.4
2016-Apr-28 15:33N 58°58' W 003°18'0 0.0
2016-Apr-28 14:32N 58°58' W 003°18'0 0.0
2016-Apr-28 13:32N 58°58' W 003°18'0 0.0
2016-Apr-28 12:32N 58°58' W 003°18'0 0.0
2016-Apr-28 11:32N 58°58' W 003°18'0 0.0
2016-Apr-28 10:32N 58°58' W 003°18'0 0.0
2016-Apr-28 09:32N 58°58' W 003°18'7 7.5
2016-Apr-28 08:33N 58°53' W 003°28'1616.2
2016-Apr-28 07:34N 58°37' W 003°32'6 5.6
2016-Apr-28 06:34N 58°42' W 003°30'1616.3
2016-Apr-28 05:33N 58°57' W 003°17'1 0.7
2016-Apr-28 04:32N 58°58' W 003°18'0 0.0
2016-Apr-28 03:32N 58°58' W 003°18'0 0.0
2016-Apr-28 02:32N 58°58' W 003°18'0 0.0
2016-Apr-28 01:32N 58°58' W 003°18'0 0.0
2016-Apr-28 00:32N 58°58' W 003°18'0 0.0
2016-Apr-27 23:32N 58°58' W 003°18'0 0.0
2016-Apr-27 22:32N 58°58' W 003°18'0 0.0
2016-Apr-27 21:32N 58°58' W 003°18'0 0.0
2016-Apr-27 20:32N 58°58' W 003°18'0 0.0
2016-Apr-27 19:32N 58°58' W 003°18'1111.2
2016-Apr-27 18:33N 58°49' W 003°29'1212.1
2016-Apr-27 17:33N 58°37' W 003°32'9 9.0
2016-Apr-27 16:34N 58°45' W 003°30'1413.8
2016-Apr-27 15:33N 58°58' W 003°18'0 0.0
2016-Apr-27 14:30N 58°58' W 003°18'0 0.0
2016-Apr-27 13:33N 58°58' W 003°18'0 0.0
2016-Apr-27 12:33N 58°58' W 003°18'0 0.0
2016-Apr-27 11:33N 58°58' W 003°18'0 0.0
2016-Apr-27 10:30N 58°58' W 003°18'0 0.0
2016-Apr-27 09:33N 58°58' W 003°18'7 7.4
2016-Apr-27 08:33N 58°53' W 003°28'1616.1
2016-Apr-27 07:33N 58°37' W 003°32'4 4.3
2016-Apr-27 06:34N 58°41' W 003°31'1717.1
2016-Apr-27 05:33N 58°57' W 003°18'1 1.1
2016-Apr-27 04:33N 58°58' W 003°18'0 0.0
2016-Apr-27 03:33N 58°58' W 003°18'0 0.0
2016-Apr-27 02:33N 58°58' W 003°18'0 0.0
2016-Apr-27 01:33N 58°58' W 003°18'0 0.0
2016-Apr-27 00:33N 58°58' W 003°18'0 0.0
2016-Apr-26 23:33N 58°58' W 003°18'0 0.0
2016-Apr-26 22:33N 58°58' W 003°18'0 0.0
2016-Apr-26 21:33N 58°58' W 003°18'0 0.0
2016-Apr-26 20:30N 58°58' W 003°18'0 0.0
2016-Apr-26 19:33N 58°58' W 003°18'1211.2
2016-Apr-26 18:29N 58°47' W 003°27'1111.4
2016-Apr-26 17:33N 58°37' W 003°32'1111.0
2016-Apr-26 16:33N 58°48' W 003°29'1211.7
2016-Apr-26 15:32N 58°58' W 003°18'3 3.5
2016-Apr-26 14:33N 58°57' W 003°24'1616.1
2016-Apr-26 13:33N 58°41' W 003°31'3 2.9
2016-Apr-26 12:33N 58°38' W 003°31'1616.0
2016-Apr-26 11:33N 58°49' W 003°10'9 9.1
2016-Apr-26 10:32N 58°58' W 003°18'0 0.0
2016-Apr-26 09:32N 58°58' W 003°18'0 0.0
2016-Apr-26 08:32N 58°58' W 003°18'0 0.0
2016-Apr-26 07:32N 58°58' W 003°18'0 0.0
2016-Apr-26 06:32N 58°58' W 003°18'0 0.0
2016-Apr-26 05:32N 58°58' W 003°18'0 0.0
2016-Apr-26 04:29N 58°58' W 003°18'0 0.0
2016-Apr-26 03:32N 58°58' W 003°18'0 0.0
2016-Apr-26 02:32N 58°58' W 003°18'0 0.0
2016-Apr-26 01:32N 58°58' W 003°18'0 0.0
2016-Apr-26 00:32N 58°58' W 003°18'0 0.0
2016-Apr-25 23:32N 58°58' W 003°18'0 0.0
2016-Apr-25 22:32N 58°58' W 003°18'0 0.0
2016-Apr-25 21:32N 58°58' W 003°18'0 0.0
2016-Apr-25 20:32N 58°58' W 003°18'0 0.0
2016-Apr-25 19:32N 58°58' W 003°18'0 0.0
2016-Apr-25 18:32N 58°58' W 003°18'0 0.0
2016-Apr-25 17:32N 58°58' W 003°18'0 0.0
2016-Apr-25 16:32N 58°58' W 003°18'0 0.0
2016-Apr-25 15:29N 58°58' W 003°18'0 0.0
2016-Apr-25 14:32N 58°58' W 003°18'0 0.0
2016-Apr-25 13:32N 58°58' W 003°18'0 0.0
2016-Apr-25 12:32N 58°58' W 003°18'0 0.0
2016-Apr-25 11:29N 58°58' W 003°18'0 0.0
2016-Apr-25 10:32N 58°58' W 003°18'0 0.0
2016-Apr-25 09:32N 58°58' W 003°18'1010.2
2016-Apr-25 08:33N 58°49' W 003°09'1716.5
2016-Apr-25 07:33N 58°37' W 003°31'4 4.5
2016-Apr-25 06:33N 58°42' W 003°31'1616.2
2016-Apr-25 05:33N 58°57' W 003°19'1 1.2
2016-Apr-25 04:30N 58°58' W 003°18'0 0.0
2016-Apr-25 03:30N 58°58' W 003°18'0 0.0
2016-Apr-25 02:33N 58°58' W 003°18'0 0.0
2016-Apr-25 01:33N 58°58' W 003°18'0 0.0
2016-Apr-25 00:33N 58°58' W 003°18'0 0.0
2016-Apr-24 23:33N 58°58' W 003°18'0 0.0
2016-Apr-24 22:33N 58°58' W 003°18'0 0.0
2016-Apr-24 21:33N 58°58' W 003°18'0 0.0
2016-Apr-24 20:33N 58°58' W 003°18'0 0.0
2016-Apr-24 19:33N 58°58' W 003°18'1211.7
2016-Apr-24 18:33N 58°48' W 003°29'1111.3
2016-Apr-24 17:34N 58°37' W 003°32'10 9.9
2016-Apr-24 16:34N 58°46' W 003°30'1312.7
2016-Apr-24 15:33N 58°58' W 003°18'0 0.0
2016-Apr-24 14:33N 58°58' W 003°18'0 0.0
2016-Apr-24 13:33N 58°58' W 003°18'0 0.0
2016-Apr-24 12:33N 58°58' W 003°18'1212.3
2016-Apr-24 11:33N 58°47' W 003°29'1110.7
2016-Apr-24 10:33N 58°37' W 003°32'0 0.1
2016-Apr-24 09:33N 58°37' W 003°32'1414.0
2016-Apr-24 08:33N 58°50' W 003°28'9 8.7
2016-Apr-24 07:30N 58°58' W 003°18'0 0.0
2016-Apr-24 06:33N 58°58' W 003°18'0 0.0
2016-Apr-24 05:33N 58°58' W 003°18'0 0.0
2016-Apr-24 04:33N 58°58' W 003°18'0 0.0
2016-Apr-24 03:33N 58°58' W 003°18'0 0.0
2016-Apr-24 02:33N 58°58' W 003°18'0 0.0
2016-Apr-24 01:33N 58°58' W 003°18'0 0.0
2016-Apr-24 00:33N 58°58' W 003°18'0 0.0
2016-Apr-23 23:33N 58°58' W 003°18'0 0.0
2016-Apr-23 22:33N 58°58' W 003°18'0 0.0
2016-Apr-23 21:33N 58°58' W 003°18'0 0.0
2016-Apr-23 20:33N 58°58' W 003°18'0 0.0
2016-Apr-23 19:33N 58°58' W 003°18'1111.3
2016-Apr-23 18:33N 58°48' W 003°29'1211.6
2016-Apr-23 17:33N 58°37' W 003°32'1110.6
2016-Apr-23 16:34N 58°47' W 003°29'1212.2
2016-Apr-23 15:33N 58°58' W 003°18'0 0.0
2016-Apr-23 14:32N 58°58' W 003°18'0 0.0
2016-Apr-23 13:32N 58°58' W 003°18'0 0.0
2016-Apr-23 12:32N 58°58' W 003°18'1111.4
2016-Apr-23 11:33N 58°48' W 003°29'1211.5
2016-Apr-23 10:32N 58°37' W 003°32'0 0.0
2016-Apr-23 09:33N 58°37' W 003°32'1616.4
2016-Apr-23 08:33N 58°53' W 003°27'7 7.1
2016-Apr-23 07:33N 58°58' W 003°18'0 0.0
2016-Apr-23 06:33N 58°58' W 003°18'0 0.0
2016-Apr-23 05:33N 58°58' W 003°18'0 0.0
2016-Apr-23 04:33N 58°58' W 003°18'0 0.0
2016-Apr-23 03:33N 58°58' W 003°18'0 0.0
2016-Apr-23 02:33N 58°58' W 003°18'0 0.0
2016-Apr-23 01:33N 58°58' W 003°18'0 0.0
2016-Apr-23 00:33N 58°58' W 003°18'0 0.0
2016-Apr-22 23:33N 58°58' W 003°18'0 0.0
2016-Apr-22 22:33N 58°58' W 003°18'0 0.0
2016-Apr-22 21:33N 58°58' W 003°18'0 0.0
2016-Apr-22 20:33N 58°58' W 003°18'0 0.0
2016-Apr-22 19:33N 58°58' W 003°18'1111.5
2016-Apr-22 18:33N 58°48' W 003°29'1111.4
2016-Apr-22 17:33N 58°37' W 003°32'1110.8
2016-Apr-22 16:33N 58°47' W 003°29'1212.1
2016-Apr-22 15:33N 58°58' W 003°18'0 0.0
2016-Apr-22 14:29N 58°58' W 003°18'0 0.0
2016-Apr-22 13:29N 58°58' W 003°18'0 0.0
2016-Apr-22 12:32N 58°58' W 003°18'0 0.0
2016-Apr-22 11:32N 58°58' W 003°18'0 0.0
2016-Apr-22 10:32N 58°58' W 003°18'0 0.0
2016-Apr-22 09:32N 58°58' W 003°18'6 6.6
2016-Apr-22 08:33N 58°54' W 003°27'1717.2
2016-Apr-22 07:33N 58°37' W 003°32'6 5.6
2016-Apr-22 06:33N 58°42' W 003°31'1716.6
2016-Apr-22 05:34N 58°57' W 003°17'1 0.8
2016-Apr-22 04:32N 58°58' W 003°18'0 0.0
2016-Apr-22 03:29N 58°58' W 003°18'0 0.0
2016-Apr-22 02:29N 58°58' W 003°18'0 0.0
2016-Apr-22 01:32N 58°58' W 003°18'0 0.0
2016-Apr-22 00:32N 58°58' W 003°18'0 0.0
2016-Apr-21 23:32N 58°58' W 003°18'0 0.0
2016-Apr-21 22:32N 58°58' W 003°18'0 0.0
2016-Apr-21 21:32N 58°58' W 003°18'0 0.0
2016-Apr-21 20:32N 58°58' W 003°18'0 0.0
2016-Apr-21 19:32N 58°58' W 003°18'1111.2
2016-Apr-21 18:33N 58°49' W 003°29'1211.5
2016-Apr-21 17:31N 58°37' W 003°32'1010.6
2016-Apr-21 16:33N 58°47' W 003°29'1312.6
2016-Apr-21 15:33N 58°58' W 003°18'0 0.0
2016-Apr-21 14:31N 58°58' W 003°18'0 0.0
2016-Apr-21 13:19N 58°58' W 003°18'0 0.0
2016-Apr-21 12:31N 58°58' W 003°18'0 0.0
2016-Apr-21 11:34N 58°58' W 003°18'0 0.0
2016-Apr-21 10:31N 58°58' W 003°18'0 0.0
2016-Apr-21 09:34N 58°58' W 003°18'7 6.8
2016-Apr-21 08:33N 58°53' W 003°27'1716.7
2016-Apr-21 07:33N 58°37' W 003°32'5 5.0
2016-Apr-21 06:33N 58°42' W 003°30'1716.6
2016-Apr-21 05:33N 58°57' W 003°18'1 1.0
2016-Apr-21 04:33N 58°58' W 003°18'0 0.0
2016-Apr-21 03:33N 58°58' W 003°18'0 0.0
2016-Apr-21 02:33N 58°58' W 003°18'0 0.0
2016-Apr-21 01:33N 58°58' W 003°18'0 0.0
2016-Apr-21 00:33N 58°58' W 003°18'0 0.0
2016-Apr-20 23:33N 58°58' W 003°18'0 0.0
2016-Apr-20 22:33N 58°58' W 003°18'0 0.0
2016-Apr-20 21:33N 58°58' W 003°18'0 0.0
2016-Apr-20 20:33N 58°58' W 003°18'0 0.0
2016-Apr-20 19:33N 58°58' W 003°18'1111.0
2016-Apr-20 18:33N 58°48' W 003°29'1211.9
2016-Apr-20 17:33N 58°37' W 003°32'1010.3
2016-Apr-20 16:33N 58°47' W 003°29'1212.5
2016-Apr-20 15:33N 58°58' W 003°18'0 0.0
2016-Apr-20 14:33N 58°58' W 003°18'0 0.0
2016-Apr-20 13:33N 58°58' W 003°18'0 0.0
2016-Apr-20 12:33N 58°58' W 003°18'0 0.0
2016-Apr-20 11:33N 58°58' W 003°18'0 0.0
2016-Apr-20 10:33N 58°58' W 003°18'0 0.0
2016-Apr-20 09:33N 58°58' W 003°18'10 9.6
2016-Apr-20 08:34N 58°49' W 003°09'1717.4
2016-Apr-20 07:33N 58°37' W 003°32'5 5.3
2016-Apr-20 06:33N 58°42' W 003°30'1616.5
2016-Apr-20 05:33N 58°57' W 003°17'1 0.8
2016-Apr-20 04:31N 58°58' W 003°18'0 0.0
2016-Apr-20 03:31N 58°58' W 003°18'0 0.0
2016-Apr-20 02:31N 58°58' W 003°18'0 0.0
2016-Apr-20 01:28N 58°58' W 003°18'0 0.0
2016-Apr-20 00:31N 58°58' W 003°18'0 0.0
2016-Apr-19 23:31N 58°58' W 003°18'0 0.0
2016-Apr-19 22:31N 58°58' W 003°18'0 0.0
2016-Apr-19 21:33N 58°58' W 003°18'0 0.0
2016-Apr-19 20:33N 58°58' W 003°18'0 0.0
2016-Apr-19 19:33N 58°58' W 003°18'1010.3
2016-Apr-19 18:34N 58°49' W 003°29'1312.6
2016-Apr-19 17:33N 58°37' W 003°32'1010.3
2016-Apr-19 16:33N 58°47' W 003°29'1312.5
2016-Apr-19 15:33N 58°58' W 003°18'0 0.0
2016-Apr-19 14:33N 58°58' W 003°18'0 0.0
2016-Apr-19 13:33N 58°58' W 003°18'0 0.0
2016-Apr-19 12:33N 58°58' W 003°18'0 0.0
2016-Apr-19 11:33N 58°58' W 003°18'0 0.0
2016-Apr-19 10:33N 58°58' W 003°18'0 0.0
2016-Apr-19 09:33N 58°58' W 003°18'1212.2
2016-Apr-19 08:33N 58°46' W 003°09'1615.6
2016-Apr-19 07:33N 58°37' W 003°32'6 5.7
2016-Apr-19 06:33N 58°42' W 003°31'1616.1
2016-Apr-19 05:34N 58°57' W 003°18'1 1.0
2016-Apr-19 04:33N 58°58' W 003°18'0 0.0
2016-Apr-19 03:33N 58°58' W 003°18'0 0.0
2016-Apr-19 02:33N 58°58' W 003°18'0 0.0
2016-Apr-19 01:33N 58°58' W 003°18'  
Track history (hours):
 
Tides and Currents Weather Stations Pressure Air Temp Water Temp Dewpoint Dewpoint Depression Visibility Wind Speed Wind Dir Waves Ship Positions

Hamnavoe

Operator: NorthLink Orkey & Shetland Ferries Ltd

Last reported at 2016-Apr-29 01:32 UTC. Time now 2016-Apr-29 01:56 UTC.
Position N 58°58' W 003°18'.

Length 112 m; draft 4.2 m.

Type: Ship. MMSI: 235449000.

Date/timePositionNaut miles runAvg speedWind from/ knotsBaromVisibWave heightAir tempDewpointWater temp
2016-Apr-29 01:32N 58°58' W 003°18'0 0.0
2016-Apr-29 00:32N 58°58' W 003°18'0 0.0
2016-Apr-28 23:32N 58°58' W 003°18'0 0.0
2016-Apr-28 22:32N 58°58' W 003°18'0 0.0
2016-Apr-28 21:32N 58°58' W 003°18'0 0.0
2016-Apr-28 20:32N 58°58' W 003°18'0 0.0
2016-Apr-28 19:32N 58°58' W 003°18'1212.4
2016-Apr-28 18:33N 58°48' W 003°30'1110.9
2016-Apr-28 17:33N 58°37' W 003°32'9 9.4
2016-Apr-28 16:33N 58°46' W 003°30'1313.4
2016-Apr-28 15:33N 58°58' W 003°18'0 0.0
2016-Apr-28 14:32N 58°58' W 003°18'0 0.0
2016-Apr-28 13:32N 58°58' W 003°18'0 0.0
2016-Apr-28 12:32N 58°58' W 003°18'0 0.0
2016-Apr-28 11:32N 58°58' W 003°18'0 0.0
2016-Apr-28 10:32N 58°58' W 003°18'0 0.0
2016-Apr-28 09:32N 58°58' W 003°18'7 7.5
2016-Apr-28 08:33N 58°53' W 003°28'1616.2
2016-Apr-28 07:34N 58°37' W 003°32'6 5.6
2016-Apr-28 06:34N 58°42' W 003°30'1616.3
2016-Apr-28 05:33N 58°57' W 003°17'1 0.7
2016-Apr-28 04:32N 58°58' W 003°18'0 0.0
2016-Apr-28 03:32N 58°58' W 003°18'0 0.0
2016-Apr-28 02:32N 58°58' W 003°18'0 0.0
2016-Apr-28 01:32N 58°58' W 003°18'0 0.0
2016-Apr-28 00:32N 58°58' W 003°18'0 0.0
2016-Apr-27 23:32N 58°58' W 003°18'0 0.0
2016-Apr-27 22:32N 58°58' W 003°18'0 0.0
2016-Apr-27 21:32N 58°58' W 003°18'0 0.0
2016-Apr-27 20:32N 58°58' W 003°18'0 0.0
2016-Apr-27 19:32N 58°58' W 003°18'1111.2
2016-Apr-27 18:33N 58°49' W 003°29'1212.1
2016-Apr-27 17:33N 58°37' W 003°32'9 9.0
2016-Apr-27 16:34N 58°45' W 003°30'1413.8
2016-Apr-27 15:33N 58°58' W 003°18'0 0.0
2016-Apr-27 14:30N 58°58' W 003°18'0 0.0
2016-Apr-27 13:33N 58°58' W 003°18'0 0.0
2016-Apr-27 12:33N 58°58' W 003°18'0 0.0
2016-Apr-27 11:33N 58°58' W 003°18'0 0.0
2016-Apr-27 10:30N 58°58' W 003°18'0 0.0
2016-Apr-27 09:33N 58°58' W 003°18'7 7.4
2016-Apr-27 08:33N 58°53' W 003°28'1616.1
2016-Apr-27 07:33N 58°37' W 003°32'4 4.3
2016-Apr-27 06:34N 58°41' W 003°31'1717.1
2016-Apr-27 05:33N 58°57' W 003°18'1 1.1
2016-Apr-27 04:33N 58°58' W 003°18'0 0.0
2016-Apr-27 03:33N 58°58' W 003°18'0 0.0
2016-Apr-27 02:33N 58°58' W 003°18'0 0.0
2016-Apr-27 01:33N 58°58' W 003°18'0 0.0
2016-Apr-27 00:33N 58°58' W 003°18'0 0.0
2016-Apr-26 23:33N 58°58' W 003°18'0 0.0
2016-Apr-26 22:33N 58°58' W 003°18'0 0.0
2016-Apr-26 21:33N 58°58' W 003°18'0 0.0
2016-Apr-26 20:30N 58°58' W 003°18'0 0.0
2016-Apr-26 19:33N 58°58' W 003°18'1211.2
2016-Apr-26 18:29N 58°47' W 003°27'1111.4
2016-Apr-26 17:33N 58°37' W 003°32'1111.0
2016-Apr-26 16:33N 58°48' W 003°29'1211.7
2016-Apr-26 15:32N 58°58' W 003°18'3 3.5
2016-Apr-26 14:33N 58°57' W 003°24'1616.1
2016-Apr-26 13:33N 58°41' W 003°31'3 2.9
2016-Apr-26 12:33N 58°38' W 003°31'1616.0
2016-Apr-26 11:33N 58°49' W 003°10'9 9.1
2016-Apr-26 10:32N 58°58' W 003°18'0 0.0
2016-Apr-26 09:32N 58°58' W 003°18'0 0.0
2016-Apr-26 08:32N 58°58' W 003°18'0 0.0
2016-Apr-26 07:32N 58°58' W 003°18'0 0.0
2016-Apr-26 06:32N 58°58' W 003°18'0 0.0
2016-Apr-26 05:32N 58°58' W 003°18'0 0.0
2016-Apr-26 04:29N 58°58' W 003°18'0 0.0
2016-Apr-26 03:32N 58°58' W 003°18'0 0.0
2016-Apr-26 02:32N 58°58' W 003°18'0 0.0
2016-Apr-26 01:32N 58°58' W 003°18'0 0.0
2016-Apr-26 00:32N 58°58' W 003°18'0 0.0
2016-Apr-25 23:32N 58°58' W 003°18'0 0.0
2016-Apr-25 22:32N 58°58' W 003°18'0 0.0
2016-Apr-25 21:32N 58°58' W 003°18'0 0.0
2016-Apr-25 20:32N 58°58' W 003°18'0 0.0
2016-Apr-25 19:32N 58°58' W 003°18'0 0.0
2016-Apr-25 18:32N 58°58' W 003°18'0 0.0
2016-Apr-25 17:32N 58°58' W 003°18'0 0.0
2016-Apr-25 16:32N 58°58' W 003°18'0 0.0
2016-Apr-25 15:29N 58°58' W 003°18'0 0.0
2016-Apr-25 14:32N 58°58' W 003°18'0 0.0
2016-Apr-25 13:32N 58°58' W 003°18'0 0.0
2016-Apr-25 12:32N 58°58' W 003°18'0 0.0
2016-Apr-25 11:29N 58°58' W 003°18'0 0.0
2016-Apr-25 10:32N 58°58' W 003°18'0 0.0
2016-Apr-25 09:32N 58°58' W 003°18'1010.2
2016-Apr-25 08:33N 58°49' W 003°09'1716.5
2016-Apr-25 07:33N 58°37' W 003°31'4 4.5
2016-Apr-25 06:33N 58°42' W 003°31'1616.2
2016-Apr-25 05:33N 58°57' W 003°19'1 1.2
2016-Apr-25 04:30N 58°58' W 003°18'0 0.0
2016-Apr-25 03:30N 58°58' W 003°18'0 0.0
2016-Apr-25 02:33N 58°58' W 003°18'0 0.0
2016-Apr-25 01:33N 58°58' W 003°18'0 0.0
2016-Apr-25 00:33N 58°58' W 003°18'0 0.0
2016-Apr-24 23:33N 58°58' W 003°18'0 0.0
2016-Apr-24 22:33N 58°58' W 003°18'0 0.0
2016-Apr-24 21:33N 58°58' W 003°18'0 0.0
2016-Apr-24 20:33N 58°58' W 003°18'0 0.0
2016-Apr-24 19:33N 58°58' W 003°18'1211.7
2016-Apr-24 18:33N 58°48' W 003°29'1111.3
2016-Apr-24 17:34N 58°37' W 003°32'10 9.9
2016-Apr-24 16:34N 58°46' W 003°30'1312.7
2016-Apr-24 15:33N 58°58' W 003°18'0 0.0
2016-Apr-24 14:33N 58°58' W 003°18'0 0.0
2016-Apr-24 13:33N 58°58' W 003°18'0 0.0
2016-Apr-24 12:33N 58°58' W 003°18'1212.3
2016-Apr-24 11:33N 58°47' W 003°29'1110.7
2016-Apr-24 10:33N 58°37' W 003°32'0 0.1
2016-Apr-24 09:33N 58°37' W 003°32'1414.0
2016-Apr-24 08:33N 58°50' W 003°28'9 8.7
2016-Apr-24 07:30N 58°58' W 003°18'0 0.0
2016-Apr-24 06:33N 58°58' W 003°18'0 0.0
2016-Apr-24 05:33N 58°58' W 003°18'0 0.0
2016-Apr-24 04:33N 58°58' W 003°18'0 0.0
2016-Apr-24 03:33N 58°58' W 003°18'0 0.0
2016-Apr-24 02:33N 58°58' W 003°18'0 0.0
2016-Apr-24 01:33N 58°58' W 003°18'0 0.0
2016-Apr-24 00:33N 58°58' W 003°18'0 0.0
2016-Apr-23 23:33N 58°58' W 003°18'0 0.0
2016-Apr-23 22:33N 58°58' W 003°18'0 0.0
2016-Apr-23 21:33N 58°58' W 003°18'0 0.0
2016-Apr-23 20:33N 58°58' W 003°18'0 0.0
2016-Apr-23 19:33N 58°58' W 003°18'1111.3
2016-Apr-23 18:33N 58°48' W 003°29'1211.6
2016-Apr-23 17:33N 58°37' W 003°32'1110.6
2016-Apr-23 16:34N 58°47' W 003°29'1212.2
2016-Apr-23 15:33N 58°58' W 003°18'0 0.0
2016-Apr-23 14:32N 58°58' W 003°18'0 0.0
2016-Apr-23 13:32N 58°58' W 003°18'0 0.0
2016-Apr-23 12:32N 58°58' W 003°18'1111.4
2016-Apr-23 11:33N 58°48' W 003°29'1211.5
2016-Apr-23 10:32N 58°37' W 003°32'0 0.0
2016-Apr-23 09:33N 58°37' W 003°32'1616.4
2016-Apr-23 08:33N 58°53' W 003°27'7 7.1
2016-Apr-23 07:33N 58°58' W 003°18'0 0.0
2016-Apr-23 06:33N 58°58' W 003°18'0 0.0
2016-Apr-23 05:33N 58°58' W 003°18'0 0.0
2016-Apr-23 04:33N 58°58' W 003°18'0 0.0
2016-Apr-23 03:33N 58°58' W 003°18'0 0.0
2016-Apr-23 02:33N 58°58' W 003°18'0 0.0
2016-Apr-23 01:33N 58°58' W 003°18'0 0.0
2016-Apr-23 00:33N 58°58' W 003°18'0 0.0
2016-Apr-22 23:33N 58°58' W 003°18'0 0.0
2016-Apr-22 22:33N 58°58' W 003°18'0 0.0
2016-Apr-22 21:33N 58°58' W 003°18'0 0.0
2016-Apr-22 20:33N 58°58' W 003°18'0 0.0
2016-Apr-22 19:33N 58°58' W 003°18'1111.5
2016-Apr-22 18:33N 58°48' W 003°29'1111.4
2016-Apr-22 17:33N 58°37' W 003°32'1110.8
2016-Apr-22 16:33N 58°47' W 003°29'1212.1
2016-Apr-22 15:33N 58°58' W 003°18'0 0.0
2016-Apr-22 14:29N 58°58' W 003°18'0 0.0
2016-Apr-22 13:29N 58°58' W 003°18'0 0.0
2016-Apr-22 12:32N 58°58' W 003°18'0 0.0
2016-Apr-22 11:32N 58°58' W 003°18'0 0.0
2016-Apr-22 10:32N 58°58' W 003°18'0 0.0
2016-Apr-22 09:32N 58°58' W 003°18'6 6.6
2016-Apr-22 08:33N 58°54' W 003°27'1717.2
2016-Apr-22 07:33N 58°37' W 003°32'6 5.6
2016-Apr-22 06:33N 58°42' W 003°31'1716.6
2016-Apr-22 05:34N 58°57' W 003°17'1 0.8
2016-Apr-22 04:32N 58°58' W 003°18'0 0.0
2016-Apr-22 03:29N 58°58' W 003°18'0 0.0
2016-Apr-22 02:29N 58°58' W 003°18'0 0.0
2016-Apr-22 01:32N 58°58' W 003°18'0 0.0
2016-Apr-22 00:32N 58°58' W 003°18'0 0.0
2016-Apr-21 23:32N 58°58' W 003°18'0 0.0
2016-Apr-21 22:32N 58°58' W 003°18'0 0.0
2016-Apr-21 21:32N 58°58' W 003°18'0 0.0
2016-Apr-21 20:32N 58°58' W 003°18'0 0.0
2016-Apr-21 19:32N 58°58' W 003°18'1111.2
2016-Apr-21 18:33N 58°49' W 003°29'1211.5
2016-Apr-21 17:31N 58°37' W 003°32'1010.6
2016-Apr-21 16:33N 58°47' W 003°29'1312.6
2016-Apr-21 15:33N 58°58' W 003°18'0 0.0
2016-Apr-21 14:31N 58°58' W 003°18'0 0.0
2016-Apr-21 13:19N 58°58' W 003°18'0 0.0
2016-Apr-21 12:31N 58°58' W 003°18'0 0.0
2016-Apr-21 11:34N 58°58' W 003°18'0 0.0
2016-Apr-21 10:31N 58°58' W 003°18'0 0.0
2016-Apr-21 09:34N 58°58' W 003°18'7 6.8
2016-Apr-21 08:33N 58°53' W 003°27'1716.7
2016-Apr-21 07:33N 58°37' W 003°32'5 5.0
2016-Apr-21 06:33N 58°42' W 003°30'1716.6
2016-Apr-21 05:33N 58°57' W 003°18'1 1.0
2016-Apr-21 04:33N 58°58' W 003°18'0 0.0
2016-Apr-21 03:33N 58°58' W 003°18'0 0.0
2016-Apr-21 02:33N 58°58' W 003°18'0 0.0
2016-Apr-21 01:33N 58°58' W 003°18'0 0.0
2016-Apr-21 00:33N 58°58' W 003°18'0 0.0
2016-Apr-20 23:33N 58°58' W 003°18'0 0.0
2016-Apr-20 22:33N 58°58' W 003°18'0 0.0
2016-Apr-20 21:33N 58°58' W 003°18'0 0.0
2016-Apr-20 20:33N 58°58' W 003°18'0 0.0
2016-Apr-20 19:33N 58°58' W 003°18'1111.0
2016-Apr-20 18:33N 58°48' W 003°29'1211.9
2016-Apr-20 17:33N 58°37' W 003°32'1010.3
2016-Apr-20 16:33N 58°47' W 003°29'1212.5
2016-Apr-20 15:33N 58°58' W 003°18'0 0.0
2016-Apr-20 14:33N 58°58' W 003°18'0 0.0
2016-Apr-20 13:33N 58°58' W 003°18'0 0.0
2016-Apr-20 12:33N 58°58' W 003°18'0 0.0
2016-Apr-20 11:33N 58°58' W 003°18'0 0.0
2016-Apr-20 10:33N 58°58' W 003°18'0 0.0
2016-Apr-20 09:33N 58°58' W 003°18'10 9.6
2016-Apr-20 08:34N 58°49' W 003°09'1717.4
2016-Apr-20 07:33N 58°37' W 003°32'5 5.3
2016-Apr-20 06:33N 58°42' W 003°30'1616.5
2016-Apr-20 05:33N 58°57' W 003°17'1 0.8
2016-Apr-20 04:31N 58°58' W 003°18'0 0.0
2016-Apr-20 03:31N 58°58' W 003°18'0 0.0
2016-Apr-20 02:31N 58°58' W 003°18'0 0.0
2016-Apr-20 01:28N 58°58' W 003°18'0 0.0
2016-Apr-20 00:31N 58°58' W 003°18'0 0.0
2016-Apr-19 23:31N 58°58' W 003°18'0 0.0
2016-Apr-19 22:31N 58°58' W 003°18'0 0.0
2016-Apr-19 21:33N 58°58' W 003°18'0 0.0
2016-Apr-19 20:33N 58°58' W 003°18'0 0.0
2016-Apr-19 19:33N 58°58' W 003°18'1010.3
2016-Apr-19 18:34N 58°49' W 003°29'1312.6
2016-Apr-19 17:33N 58°37' W 003°32'1010.3
2016-Apr-19 16:33N 58°47' W 003°29'1312.5
2016-Apr-19 15:33N 58°58' W 003°18'0 0.0
2016-Apr-19 14:33N 58°58' W 003°18'0 0.0
2016-Apr-19 13:33N 58°58' W 003°18'0 0.0
2016-Apr-19 12:33N 58°58' W 003°18'0 0.0
2016-Apr-19 11:33N 58°58' W 003°18'0 0.0
2016-Apr-19 10:33N 58°58' W 003°18'0 0.0
2016-Apr-19 09:33N 58°58' W 003°18'1212.2
2016-Apr-19 08:33N 58°46' W 003°09'1615.6
2016-Apr-19 07:33N 58°37' W 003°32'6 5.7
2016-Apr-19 06:33N 58°42' W 003°31'1616.1
2016-Apr-19 05:34N 58°57' W 003°18'1 1.0
2016-Apr-19 04:33N 58°58' W 003°18'0 0.0
2016-Apr-19 03:33N 58°58' W 003°18'0 0.0
2016-Apr-19 02:33N 58°58' W 003°18'0 0.0
2016-Apr-19 01:33N 58°58' W 003°18'  

Dump ship's entire track history